Time;durP1;ratioP1;P1;durP2;ratioP2;P2;SDS_P1;SDS_P2;PMS_P1;PMS_P2;Temp;Humidity;BMP_temperature;BMP_pressure;BME280_temperature;BME280_humidity;BME280_pressure;Samples;Min_cycle;Max_cycle;Signal;HPM_P1;HPM_P2
2022/12/14 00:01:55;;;;;;;78.40;39.50;;;-2.40;99.90;;;;;;10336043;28;20268;-80
2022/12/14 00:06:59;;;;;;;77.87;39.27;;;-2.00;99.90;;;;;;10373080;28;20208;-80
2022/12/14 00:12:01;;;;;;;74.10;38.30;;;-2.00;99.90;;;;;;10344888;28;20596;-80
2022/12/14 00:17:04;;;;;;;72.83;40.27;;;-2.40;99.90;;;;;;10332589;28;20217;-80
2022/12/14 00:22:06;;;;;;;79.57;40.43;;;-2.60;99.90;;;;;;10333675;28;20237;-80
2022/12/14 00:27:08;;;;;;;73.77;38.63;;;-3.10;99.90;;;;;;10332869;28;20205;-80
2022/12/14 00:32:11;;;;;;;73.13;39.23;;;-3.40;99.90;;;;;;10333038;28;20264;-80
2022/12/14 00:37:13;;;;;;;76.40;38.93;;;-3.50;99.90;;;;;;10331345;28;20693;-79
2022/12/14 00:42:16;;;;;;;65.67;37.10;;;-3.40;99.90;;;;;;10333083;28;20256;-80
2022/12/14 00:47:18;;;;;;;45.00;24.07;;;-3.10;99.90;;;;;;10314857;28;20232;-80
2022/12/14 00:52:21;;;;;;;62.13;32.30;;;-2.00;99.90;;;;;;10332014;28;20236;-80
2022/12/14 00:57:23;;;;;;;60.43;34.97;;;-1.90;99.90;;;;;;10331433;28;20241;-80
2022/12/14 01:02:26;;;;;;;70.37;37.23;;;-2.00;99.90;;;;;;10330101;28;20530;-80
2022/12/14 01:07:28;;;;;;;61.30;35.47;;;-2.00;99.90;;;;;;10332410;28;20263;-80
2022/12/14 01:12:31;;;;;;;68.93;36.77;;;-2.60;99.90;;;;;;10332568;28;20705;-80
2022/12/14 01:17:33;;;;;;;68.33;35.70;;;-3.50;99.90;;;;;;10314054;28;20316;-80
2022/12/14 01:22:36;;;;;;;59.40;34.83;;;-3.80;99.90;;;;;;10331474;28;20303;-80
2022/12/14 01:27:39;;;;;;;61.07;36.33;;;-4.00;99.90;;;;;;10297723;28;20570;-81
2022/12/14 01:32:41;;;;;;;67.50;37.70;;;-4.10;99.90;;;;;;10330287;28;20295;-80
2022/12/14 01:37:44;;;;;;;64.57;35.93;;;-4.30;99.90;;;;;;10328686;28;20699;-81
2022/12/14 01:42:50;;;;;;;64.30;39.20;;;-4.80;99.90;;;;;;10329316;28;20321;-81
2022/12/14 01:47:56;;;;;;;67.23;37.27;;;-4.90;99.90;;;;;;10330841;28;20226;-81
2022/12/14 01:53:05;;;;;;;64.27;37.00;;;-4.40;99.90;;;;;;10330445;28;20238;-81
2022/12/14 01:58:14;;;;;;;67.23;36.93;;;-3.80;99.90;;;;;;10329001;28;20206;-81
2022/12/14 02:03:22;;;;;;;64.27;36.87;;;-4.40;99.90;;;;;;10329834;28;20678;-81
2022/12/14 02:08:25;;;;;;;65.30;35.90;;;-4.60;99.90;;;;;;10295342;28;20209;-80
2022/12/14 02:13:31;;;;;;;63.27;38.47;;;-4.90;99.90;;;;;;10329737;28;20237;-80
2022/12/14 02:18:34;;;;;;;64.80;36.37;;;-5.20;99.90;;;;;;10329471;28;20301;-80
2022/12/14 02:23:51;;;;;;;54.93;35.23;;;-5.40;99.90;;;;;;10330351;28;20257;-80
2022/12/14 02:29:09;;;;;;;53.67;32.70;;;-5.50;99.90;;;;;;10327445;28;20206;-80
2022/12/14 02:34:48;;;;;;;72.53;39.03;;;-5.60;99.90;;;;;;10303372;28;20219;-81
2022/12/14 02:40:08;;;;;;;76.13;40.60;;;-5.70;99.90;;;;;;10288049;28;20250;-80
2022/12/14 02:45:22;;;;;;;69.27;38.87;;;-5.30;99.90;;;;;;10286928;28;20770;-81
2022/12/14 02:50:59;;;;;;;58.67;35.63;;;-5.10;99.90;;;;;;10314219;28;20891;-80
2022/12/14 02:56:07;;;;;;;65.60;36.23;;;-5.10;99.90;;;;;;10294795;28;20285;-80
2022/12/14 03:01:13;;;;;;;60.23;35.27;;;-5.10;99.90;;;;;;10309103;28;20233;-80
2022/12/14 03:06:25;;;;;;;64.50;36.20;;;-5.10;99.90;;;;;;10328032;28;20677;-80
2022/12/14 03:11:37;;;;;;;65.43;38.33;;;-4.80;99.90;;;;;;10326918;28;20249;-80
2022/12/14 03:16:47;;;;;;;56.43;32.50;;;-5.20;99.90;;;;;;10324884;28;20319;-80
2022/12/14 03:21:57;;;;;;;59.40;34.47;;;-4.90;99.90;;;;;;10309731;28;20309;-81
2022/12/14 03:27:04;;;;;;;58.60;34.70;;;-4.50;99.90;;;;;;10319444;28;20234;-80
2022/12/14 03:32:12;;;;;;;57.40;34.03;;;-4.90;99.90;;;;;;10328213;28;20281;-80
2022/12/14 03:37:21;;;;;;;54.70;32.57;;;-5.20;99.90;;;;;;10326893;28;20237;-80
2022/12/14 03:42:36;;;;;;;55.87;35.20;;;-5.30;99.90;;;;;;10326186;28;20364;-80
2022/12/14 03:47:54;;;;;;;48.97;28.90;;;-5.30;99.90;;;;;;10326893;28;20225;-80
2022/12/14 03:53:20;;;;;;;52.10;31.20;;;-4.70;99.90;;;;;;10326731;28;20236;-80
2022/12/14 03:58:34;;;;;;;51.50;29.30;;;-4.70;99.90;;;;;;10327248;28;20236;-80
2022/12/14 04:03:39;;;;;;;51.37;29.43;;;-4.40;99.90;;;;;;10326140;28;20262;-80
2022/12/14 04:08:50;;;;;;;49.60;29.30;;;-4.30;99.90;;;;;;10324836;28;20205;-80
2022/12/14 04:19:48;;;;;;;55.37;32.20;;;-3.40;99.90;;;;;;10326512;28;20257;-80
2022/12/14 04:30:38;;;;;;;54.67;31.67;;;-4.10;99.90;;;;;;10309224;28;20696;-80
2022/12/14 04:35:42;;;;;;;52.70;31.50;;;-4.80;99.90;;;;;;10316019;28;20249;-80
2022/12/14 04:40:49;;;;;;;48.43;27.07;;;-5.00;99.90;;;;;;10331974;28;20249;-80
2022/12/14 04:45:56;;;;;;;46.57;28.67;;;-4.60;99.90;;;;;;10333466;28;20312;-80
2022/12/14 04:51:14;;;;;;;44.83;28.00;;;-3.40;99.90;;;;;;10333119;28;20289;-80
2022/12/14 04:56:40;;;;;;;43.50;26.63;;;-3.60;99.90;;;;;;10332110;28;20760;-80
2022/12/14 05:02:05;;;;;;;42.07;27.50;;;-3.50;99.90;;;;;;10314599;28;20337;-80
2022/12/14 05:07:22;;;;;;;46.57;27.20;;;-3.40;99.90;;;;;;10324148;28;20279;-80
2022/12/14 05:12:43;;;;;;;43.50;26.80;;;-2.90;99.90;;;;;;10331511;28;20238;-80
2022/12/14 05:17:46;;;;;;;45.57;27.33;;;-4.00;99.90;;;;;;10330881;28;20239;-80
2022/12/14 05:22:49;;;;;;;43.53;28.33;;;-3.70;99.90;;;;;;10330679;28;20328;-80
2022/12/14 05:27:52;;;;;;;46.80;28.90;;;-3.60;99.90;;;;;;10329885;28;20767;-80
2022/12/14 05:32:54;;;;;;;44.73;29.03;;;-3.70;99.90;;;;;;10329660;28;20611;-80
2022/12/14 05:37:57;;;;;;;47.60;30.63;;;-4.20;99.90;;;;;;10328880;28;20215;-81
2022/12/14 05:43:07;;;;;;;54.23;31.60;;;-4.30;99.90;;;;;;10329382;28;20768;-81
2022/12/14 05:48:10;;;;;;;56.17;34.00;;;-4.30;99.90;;;;;;10309648;28;20238;-81
2022/12/14 05:53:12;;;;;;;60.23;33.07;;;-4.50;99.90;;;;;;10331015;28;20216;-81
2022/12/14 05:58:15;;;;;;;56.30;33.90;;;-5.20;99.90;;;;;;10327924;28;20222;-81
2022/12/14 06:03:17;;;;;;;46.07;27.67;;;-5.50;99.90;;;;;;10311626;28;20265;-81
2022/12/14 06:08:20;;;;;;;51.90;32.47;;;-5.30;99.90;;;;;;10328778;28;20230;-81
2022/12/14 06:13:22;;;;;;;59.50;33.90;;;-5.40;99.90;;;;;;10329306;28;20770;-81
2022/12/14 06:18:25;;;;;;;60.60;34.07;;;-5.40;99.90;;;;;;10328595;28;20279;-81
2022/12/14 06:23:28;;;;;;;63.30;35.43;;;-5.60;99.90;;;;;;10329026;28;20949;-81
2022/12/14 06:28:31;;;;;;;62.83;35.30;;;-6.00;99.90;;;;;;10328787;28;20238;-82
2022/12/14 06:33:34;;;;;;;59.73;36.40;;;-6.20;99.90;;;;;;10328557;28;20226;-81
2022/12/14 06:38:37;;;;;;;105.90;66.67;;;-5.60;99.90;;;;;;10313381;28;20240;-81
2022/12/14 06:43:39;;;;;;;22.60;13.70;;;-7.40;99.90;;;;;;10304812;28;20242;-85
2022/12/14 06:48:42;;;;;;;88.30;46.80;;;-2.00;99.90;;;;;;10309668;28;20236;-85
2022/12/14 06:53:45;;;;;;;102.40;53.73;;;-1.40;99.90;;;;;;10305131;28;20224;-85
2022/12/14 06:58:48;;;;;;;89.23;48.97;;;-3.00;99.90;;;;;;10290374;28;20287;-86
2022/12/14 07:03:53;;;;;;;84.30;44.77;;;-3.80;99.90;;;;;;10297243;28;20256;-86
2022/12/14 07:08:57;;;;;;;96.53;53.23;;;-3.70;99.90;;;;;;10306844;28;20225;-86
2022/12/14 07:14:02;;;;;;;85.03;48.23;;;-2.70;99.90;;;;;;10294622;28;20284;-86
2022/12/14 07:19:04;;;;;;;59.67;35.50;;;-3.10;99.90;;;;;;10300421;28;20283;-86
2022/12/14 07:24:08;;;;;;;56.33;31.43;;;-3.80;99.90;;;;;;10311488;28;20361;-86
2022/12/14 07:29:10;;;;;;;61.97;33.37;;;-4.20;99.90;;;;;;10310195;28;20229;-86
2022/12/14 07:34:13;;;;;;;61.17;36.93;;;-3.00;99.90;;;;;;10320729;28;20636;-86
2022/12/14 07:39:16;;;;;;;88.93;48.87;;;-1.60;99.90;;;;;;10303197;28;20238;-86
2022/12/14 07:44:19;;;;;;;88.90;47.77;;;-1.60;99.90;;;;;;10307443;28;20298;-85
2022/12/14 07:49:24;;;;;;;57.37;33.80;;;-2.30;99.90;;;;;;10305861;28;20274;-86
2022/12/14 07:54:26;;;;;;;59.33;34.43;;;-2.70;99.90;;;;;;10307224;28;20313;-86
2022/12/14 07:59:29;;;;;;;52.77;31.33;;;-1.70;99.90;;;;;;10286430;28;20243;-85
2022/12/14 08:04:33;;;;;;;48.73;31.60;;;0.00;99.90;;;;;;10316682;28;20323;-86
2022/12/14 08:09:35;;;;;;;55.93;33.20;;;1.70;99.90;;;;;;10308427;28;20247;-86
2022/12/14 08:14:41;;;;;;;53.97;31.70;;;2.50;99.90;;;;;;10314020;28;20242;-85
2022/12/14 08:19:43;;;;;;;60.10;34.67;;;2.80;99.90;;;;;;10316882;28;20231;-84
2022/12/14 08:24:45;;;;;;;56.03;32.47;;;3.40;99.90;;;;;;10306173;28;20256;-86
2022/12/14 08:29:50;;;;;;;54.73;32.13;;;3.90;95.90;;;;;;10310453;28;20259;-86
2022/12/14 08:34:53;;;;;;;42.27;25.73;;;4.50;96.70;;;;;;10307971;28;20234;-86
2022/12/14 08:39:55;;;;;;;58.43;30.33;;;4.00;99.90;;;;;;10312001;28;20656;-86
2022/12/14 08:44:58;;;;;;;73.50;33.10;;;6.20;84.90;;;;;;10302943;28;20352;-86
2022/12/14 08:50:00;;;;;;;62.37;38.73;;;5.40;78.90;;;;;;10326485;28;20229;-86
2022/12/14 08:55:04;;;;;;;61.70;32.00;;;4.10;76.30;;;;;;10310351;28;20210;-86
2022/12/14 09:00:08;;;;;;;63.83;36.53;;;4.40;80.10;;;;;;10312701;28;20227;-86
2022/12/14 09:05:10;;;;;;;64.37;32.03;;;4.60;67.40;;;;;;10309982;28;20317;-86
2022/12/14 09:10:13;;;;;;;56.73;30.60;;;4.40;77.70;;;;;;10323441;28;20263;-86
2022/12/14 09:15:15;;;;;;;54.70;31.50;;;3.30;91.00;;;;;;10299987;28;20278;-86
2022/12/14 09:20:18;;;;;;;54.30;30.30;;;1.40;98.30;;;;;;10319933;28;20237;-85
2022/12/14 09:25:20;;;;;;;53.13;28.93;;;2.60;99.90;;;;;;10328517;28;20257;-85
2022/12/14 09:30:24;;;;;;;51.73;27.17;;;4.20;97.90;;;;;;10317016;28;20227;-85
2022/12/14 09:35:34;;;;;;;57.27;28.07;;;4.40;97.00;;;;;;10302997;28;20245;-86
2022/12/14 09:40:41;;;;;;;49.27;29.40;;;3.70;91.90;;;;;;10309956;28;20270;-85
2022/12/14 09:45:53;;;;;;;46.57;30.20;;;2.30;96.70;;;;;;10314916;28;20272;-85
2022/12/14 09:50:56;;;;;;;57.57;31.80;;;3.60;99.90;;;;;;10305515;28;20233;-85
2022/12/14 09:55:59;;;;;;;45.87;27.20;;;3.50;96.00;;;;;;10316726;28;20232;-85
2022/12/14 10:01:30;;;;;;;66.87;36.93;;;4.10;97.70;;;;;;10318097;28;20256;-85
2022/12/14 10:06:45;;;;;;;54.67;31.03;;;2.50;82.50;;;;;;10300703;28;20205;-86
2022/12/14 10:12:02;;;;;;;50.83;31.40;;;1.60;96.40;;;;;;10309652;28;20210;-86
2022/12/14 10:17:28;;;;;;;46.67;26.87;;;2.80;99.90;;;;;;10309401;28;20265;-86
2022/12/14 10:22:36;;;;;;;53.10;28.00;;;3.90;99.90;;;;;;10325701;28;20262;-86
2022/12/14 10:27:40;;;;;;;42.40;24.57;;;3.90;98.30;;;;;;10293258;28;20206;-86
2022/12/14 10:33:18;;;;;;;65.93;39.80;;;4.20;99.40;;;;;;10315438;28;20231;-84
2022/12/14 10:38:40;;;;;;;56.70;34.27;;;4.00;74.30;;;;;;10316622;28;20765;-84
2022/12/14 10:44:13;;;;;;;50.63;29.53;;;2.70;94.30;;;;;;10313273;28;20728;-84
2022/12/14 10:49:22;;;;;;;73.97;40.10;;;3.30;97.40;;;;;;10299296;28;20674;-86
2022/12/14 10:54:33;;;;;;;65.93;38.23;;;3.70;87.80;;;;;;10308629;28;20285;-86
2022/12/14 10:59:36;;;;;;;59.57;32.77;;;2.90;90.90;;;;;;10302861;28;20265;-86
2022/12/14 11:04:58;;;;;;;74.60;40.70;;;2.60;99.90;;;;;;10311634;28;20262;-86
2022/12/14 11:10:24;;;;;;;48.30;26.83;;;2.90;92.40;;;;;;10301515;28;20266;-85
2022/12/14 11:15:39;;;;;;;74.73;44.27;;;3.10;98.20;;;;;;10292566;28;20233;-85
2022/12/14 11:20:56;;;;;;;72.53;35.70;;;3.60;90.70;;;;;;10310126;28;20683;-85
2022/12/14 11:26:01;;;;;;;40.63;24.77;;;1.70;97.60;;;;;;10293641;28;20292;-85
2022/12/14 11:31:11;;;;;;;68.47;42.10;;;3.90;99.90;;;;;;10325729;28;20211;-86
2022/12/14 11:36:28;;;;;;;71.10;41.53;;;2.40;95.00;;;;;;10293462;28;20263;-85
2022/12/14 11:41:35;;;;;;;44.27;21.93;;;3.30;91.40;;;;;;10330693;28;20218;-85
2022/12/14 11:46:41;;;;;;;45.10;25.87;;;3.50;99.90;;;;;;10322776;28;20759;-85
2022/12/14 11:52:17;;;;;;;45.23;27.17;;;3.90;99.90;;;;;;10294995;28;20225;-85
2022/12/14 11:57:33;;;;;;;109.33;64.83;;;3.20;99.90;;;;;;10325744;28;20240;-86
2022/12/14 12:02:38;;;;;;;64.67;37.63;;;4.10;98.40;;;;;;10324170;28;20263;-86
2022/12/14 12:07:54;;;;;;;74.00;42.97;;;3.10;95.70;;;;;;10301352;28;20214;-86
2022/12/14 12:13:03;;;;;;;65.83;37.07;;;1.30;95.50;;;;;;10321084;28;20223;-86
2022/12/14 12:18:18;;;;;;;55.77;32.30;;;1.70;99.90;;;;;;10325895;28;20240;-86
2022/12/14 12:23:41;;;;;;;82.77;45.07;;;2.40;99.90;;;;;;10299358;28;20260;-86
2022/12/14 12:28:51;;;;;;;73.13;43.13;;;2.10;94.80;;;;;;10339202;28;20278;-86
2022/12/14 12:34:01;;;;;;;62.57;36.60;;;1.90;99.90;;;;;;10325222;28;20673;-85
2022/12/14 12:39:24;;;;;;;45.37;26.93;;;2.80;99.90;;;;;;10313813;28;20239;-86
2022/12/14 12:44:59;;;;;;;68.10;39.20;;;4.30;99.90;;;;;;10307249;28;20253;-86
2022/12/14 12:50:06;;;;;;;73.20;41.63;;;3.80;99.70;;;;;;10321879;28;20231;-86
2022/12/14 12:55:16;;;;;;;60.27;34.90;;;4.40;99.60;;;;;;10321241;28;20236;-86
2022/12/14 13:00:26;;;;;;;54.67;31.37;;;4.60;94.90;;;;;;10307201;28;20215;-86
2022/12/14 13:05:30;;;;;;;66.77;39.97;;;4.80;98.30;;;;;;10325093;28;20263;-85
2022/12/14 13:10:52;;;;;;;90.77;56.13;;;4.80;92.00;;;;;;10307988;28;20229;-86
2022/12/14 13:16:34;;;;;;;96.73;57.87;;;3.60;68.10;;;;;;10298133;28;20205;-85
2022/12/14 13:21:45;;;;;;;102.30;64.80;;;-0.30;95.10;;;;;;10308806;28;20561;-85
2022/12/14 13:26:51;;;;;;;108.23;57.50;;;-1.90;99.90;;;;;;10298028;28;20323;-85
2022/12/14 13:32:27;;;;;;;54.50;29.73;;;-2.80;99.90;;;;;;10305792;28;20229;-85
2022/12/14 13:37:56;;;;;;;62.40;31.57;;;-2.70;99.90;;;;;;10303768;28;20225;-85
2022/12/14 13:43:50;;;;;;;62.57;37.30;;;0.00;99.90;;;;;;10309988;28;20252;-85
2022/12/14 13:48:56;;;;;;;67.80;36.80;;;1.20;99.90;;;;;;10317841;28;20205;-85
2022/12/14 13:54:02;;;;;;;49.00;26.93;;;1.10;99.90;;;;;;10329317;28;20244;-85
2022/12/14 13:59:25;;;;;;;58.07;34.23;;;2.40;99.90;;;;;;10325883;28;20669;-85
2022/12/14 14:04:32;;;;;;;48.70;27.03;;;2.30;99.90;;;;;;10319948;28;20265;-85
2022/12/14 14:10:00;;;;;;;49.03;29.07;;;3.70;99.90;;;;;;10301424;28;20284;-84
2022/12/14 14:15:30;;;;;;;78.90;45.33;;;4.50;99.90;;;;;;10294488;28;20210;-85
2022/12/14 14:20:43;;;;;;;79.87;44.43;;;3.10;95.80;;;;;;10328757;28;20214;-86
2022/12/14 14:26:07;;;;;;;74.60;40.83;;;2.30;99.90;;;;;;10315044;28;20289;-85
2022/12/14 14:31:11;;;;;;;62.83;33.37;;;2.60;99.90;;;;;;10335767;28;20249;-82
2022/12/14 14:36:32;;;;;;;74.80;40.40;;;4.70;99.90;;;;;;10311231;28;20272;-83
2022/12/14 14:41:42;;;;;;;92.73;51.87;;;4.70;92.00;;;;;;10312121;28;20253;-85
2022/12/14 14:46:47;;;;;;;91.70;49.03;;;3.10;72.60;;;;;;10327843;28;20289;-85
2022/12/14 14:51:49;;;;;;;99.37;53.87;;;3.00;83.20;;;;;;10309351;28;20274;-85
2022/12/14 14:56:52;;;;;;;83.87;46.90;;;3.10;74.30;;;;;;10290352;28;20650;-86
2022/12/14 15:01:59;;;;;;;112.43;65.17;;;3.00;86.50;;;;;;10285398;28;20269;-86
2022/12/14 15:07:07;;;;;;;74.10;40.23;;;1.90;91.70;;;;;;10286930;28;20583;-86
2022/12/14 15:12:31;;;;;;;93.27;50.00;;;1.70;93.90;;;;;;10288616;28;20237;-86
2022/12/14 15:17:33;;;;;;;88.90;48.50;;;1.90;87.70;;;;;;10287813;28;20581;-85
2022/12/14 15:22:40;;;;;;;78.60;46.67;;;1.50;94.60;;;;;;10288202;28;20622;-86
2022/12/14 15:27:45;;;;;;;98.67;53.03;;;2.10;96.10;;;;;;10287063;28;20223;-85
2022/12/14 15:32:57;;;;;;;74.07;39.93;;;2.00;90.00;;;;;;10286004;28;20277;-86
2022/12/14 15:38:03;;;;;;;79.93;43.17;;;0.90;98.10;;;;;;10287321;28;20264;-86
2022/12/14 15:43:17;;;;;;;72.83;40.47;;;1.30;97.70;;;;;;10287257;28;20250;-86
2022/12/14 15:48:26;;;;;;;94.67;50.43;;;1.80;99.10;;;;;;10286422;28;20303;-86
2022/12/14 15:53:35;;;;;;;77.77;41.60;;;1.80;94.40;;;;;;10286249;28;20636;-86
2022/12/14 15:58:39;;;;;;;68.90;37.70;;;1.50;97.80;;;;;;10306700;28;20287;-85
2022/12/14 16:03:44;;;;;;;76.77;42.33;;;1.60;99.90;;;;;;10317992;28;20261;-86
2022/12/14 16:08:57;;;;;;;71.83;35.37;;;2.40;93.90;;;;;;10306455;28;20232;-86
2022/12/14 16:14:03;;;;;;;72.27;41.27;;;3.70;99.90;;;;;;10317652;28;20698;-86
2022/12/14 16:19:06;;;;;;;77.47;40.73;;;4.70;74.80;;;;;;10326805;28;20259;-85
2022/12/14 16:24:28;;;;;;;81.63;45.27;;;3.60;72.30;;;;;;10326964;28;20276;-84
2022/12/14 16:29:33;;;;;;;82.37;44.07;;;2.60;65.60;;;;;;10332512;28;20206;-85
2022/12/14 16:34:35;;;;;;;84.90;46.73;;;1.60;74.10;;;;;;10316716;28;20652;-85
2022/12/14 16:39:43;;;;;;;92.13;55.90;;;1.20;86.00;;;;;;10334053;28;20218;-84
2022/12/14 16:44:47;;;;;;;69.73;38.73;;;1.30;87.50;;;;;;10315543;28;20277;-85
2022/12/14 16:49:50;;;;;;;64.40;42.30;;;1.80;94.00;;;;;;10333449;28;20260;-85
2022/12/14 16:55:09;;;;;;;67.00;38.87;;;1.60;90.70;;;;;;10331449;28;20673;-85
2022/12/14 17:00:36;;;;;;;67.57;39.87;;;1.70;86.80;;;;;;10329527;28;20292;-85
2022/12/14 17:05:40;;;;;;;58.87;34.90;;;1.50;89.60;;;;;;10306952;28;20269;-85
2022/12/14 17:10:43;;;;;;;72.90;39.90;;;0.90;97.70;;;;;;10329539;28;20297;-86
2022/12/14 17:16:05;;;;;;;83.00;42.17;;;0.60;96.80;;;;;;10332065;28;20226;-87
2022/12/14 17:21:20;;;;;;;59.80;34.87;;;0.00;95.90;;;;;;10314835;28;20229;-85
2022/12/14 17:26:26;;;;;;;78.77;43.33;;;0.00;99.90;;;;;;10328039;28;20260;-84
2022/12/14 17:31:28;;;;;;;88.83;47.87;;;-0.20;95.90;;;;;;10332609;28;20224;-85
2022/12/14 17:36:31;;;;;;;76.60;44.17;;;-1.00;96.40;;;;;;10296865;28;20239;-85
2022/12/14 17:41:36;;;;;;;80.37;47.07;;;-1.60;99.90;;;;;;10331267;28;20240;-86
2022/12/14 17:46:38;;;;;;;85.37;50.73;;;-1.80;99.90;;;;;;10330092;28;20250;-85
2022/12/14 17:51:44;;;;;;;111.63;61.87;;;-2.30;99.90;;;;;;10327187;28;20252;-86
2022/12/14 17:56:46;;;;;;;87.93;49.47;;;-3.30;99.90;;;;;;10322105;28;20216;-85
2022/12/14 18:01:49;;;;;;;82.53;49.07;;;-3.80;99.90;;;;;;10322294;28;20819;-85
2022/12/14 18:06:52;;;;;;;97.10;53.67;;;-3.90;99.90;;;;;;10313557;28;20241;-85
2022/12/14 18:11:54;;;;;;;80.00;42.73;;;-3.60;99.90;;;;;;10293732;28;20245;-85
2022/12/14 18:17:16;;;;;;;80.63;43.10;;;-3.00;99.90;;;;;;10311187;28;20675;-85
2022/12/14 18:22:19;;;;;;;66.47;36.67;;;-2.50;99.90;;;;;;10294927;28;20235;-86
2022/12/14 18:27:21;;;;;;;89.07;43.53;;;-1.90;99.90;;;;;;10328253;28;20309;-85
2022/12/14 18:32:24;;;;;;;84.23;45.97;;;-1.30;99.90;;;;;;10329260;28;20305;-85
2022/12/14 18:37:26;;;;;;;75.40;41.33;;;-1.70;99.90;;;;;;10326121;28;20209;-86
2022/12/14 18:42:34;;;;;;;85.33;46.83;;;-1.40;99.90;;;;;;10331595;28;20252;-85
2022/12/14 18:47:37;;;;;;;87.47;46.33;;;-0.70;99.90;;;;;;10313581;28;20228;-86
2022/12/14 18:52:45;;;;;;;69.63;39.53;;;-1.40;99.90;;;;;;10328021;28;20197;-86
2022/12/14 18:57:51;;;;;;;73.83;41.23;;;-1.50;99.90;;;;;;10328099;28;20320;-86
2022/12/14 19:03:01;;;;;;;81.37;45.83;;;-1.10;99.90;;;;;;10310565;28;20727;-86
2022/12/14 19:08:04;;;;;;;74.90;42.63;;;-1.20;99.90;;;;;;10327260;28;20281;-86
2022/12/14 19:13:09;;;;;;;58.77;31.50;;;-0.90;99.90;;;;;;10327740;28;20293;-85
2022/12/14 19:18:11;;;;;;;75.90;41.90;;;-0.20;99.90;;;;;;10308626;28;20294;-85
2022/12/14 19:23:16;;;;;;;54.73;32.50;;;0.10;99.90;;;;;;10323385;28;20690;-86
2022/12/14 19:28:18;;;;;;;74.77;41.00;;;0.20;99.90;;;;;;10316110;28;20256;-85
2022/12/14 19:33:34;;;;;;;66.73;36.77;;;-0.10;99.90;;;;;;10324562;28;20281;-85
2022/12/14 19:38:37;;;;;;;57.70;31.23;;;0.10;99.90;;;;;;10301254;28;20242;-85
2022/12/14 19:43:39;;;;;;;106.57;51.13;;;-0.90;99.90;;;;;;10322210;28;20813;-86
2022/12/14 19:48:41;;;;;;;85.97;50.83;;;-1.40;99.90;;;;;;10301134;28;20201;-86
2022/12/14 19:53:46;;;;;;;80.60;45.43;;;-2.70;99.90;;;;;;10316550;28;20234;-86
2022/12/14 19:58:51;;;;;;;76.23;43.63;;;-3.20;99.90;;;;;;10316433;28;20225;-85
2022/12/14 20:03:53;;;;;;;71.43;41.60;;;-3.10;99.90;;;;;;10317857;28;20231;-86
2022/12/14 20:09:03;;;;;;;55.27;31.83;;;-2.50;99.90;;;;;;10319741;28;20292;-85
2022/12/14 20:14:05;;;;;;;70.20;40.80;;;-1.10;99.90;;;;;;10319761;28;20246;-85
2022/12/14 20:19:09;;;;;;;81.37;45.97;;;-0.30;99.90;;;;;;10315409;28;20811;-85
2022/12/14 20:24:12;;;;;;;48.83;28.03;;;0.10;99.90;;;;;;10332836;28;20297;-86
2022/12/14 20:29:15;;;;;;;82.87;46.27;;;1.10;99.90;;;;;;10329938;28;20235;-87
2022/12/14 20:34:17;;;;;;;79.37;44.73;;;0.20;98.50;;;;;;10315700;28;20211;-86
2022/12/14 20:39:20;;;;;;;85.43;44.03;;;-0.70;99.90;;;;;;10333576;28;20246;-86
2022/12/14 20:44:22;;;;;;;82.77;44.77;;;-1.00;99.90;;;;;;10326590;28;20254;-86
2022/12/14 20:49:28;;;;;;;56.33;32.43;;;-0.90;99.90;;;;;;10310985;28;20291;-84
2022/12/14 20:54:31;;;;;;;75.77;42.13;;;0.10;99.90;;;;;;10316805;28;20273;-85
2022/12/14 20:59:33;;;;;;;79.40;43.60;;;-0.10;99.90;;;;;;10314807;28;21045;-85
2022/12/14 21:04:36;;;;;;;83.40;47.87;;;-0.70;99.90;;;;;;10310540;28;20329;-85
2022/12/14 21:09:38;;;;;;;67.43;39.50;;;-1.30;99.90;;;;;;10292330;28;20206;-85
2022/12/14 21:14:41;;;;;;;76.70;43.97;;;-1.70;99.90;;;;;;10289412;28;20691;-86
2022/12/14 21:19:51;;;;;;;87.43;49.27;;;-1.80;99.90;;;;;;10292610;28;20281;-86
2022/12/14 21:24:54;;;;;;;86.67;45.60;;;-2.30;99.90;;;;;;10290589;28;20296;-86
2022/12/14 21:30:09;;;;;;;71.60;43.47;;;-1.90;99.90;;;;;;10290656;28;20262;-86
2022/12/14 21:35:16;;;;;;;95.47;51.27;;;-2.40;99.90;;;;;;10288225;28;20243;-86
2022/12/14 21:42:09;;;;;;;81.07;45.50;;;-2.50;99.90;;;;;;10290513;28;20761;-85
2022/12/14 21:45:41;;;;;;;88.77;50.13;;;-2.50;99.90;;;;;;10291004;28;20258;-86
2022/12/14 21:50:44;;;;;;;80.17;45.87;;;-2.50;99.90;;;;;;10290350;28;20266;-85
2022/12/14 21:55:48;;;;;;;78.73;47.63;;;-1.70;99.90;;;;;;10305489;28;20683;-85
2022/12/14 22:00:51;;;;;;;94.37;57.00;;;-2.40;99.90;;;;;;10282226;28;20702;-90
2022/12/14 22:05:54;;;;;;;107.43;63.23;;;;;;;;;;10289039;28;20277;-85
2022/12/14 22:11:01;;;;;;;132.10;75.17;;;;;;;;;;10269041;28;20272;-85
2022/12/14 22:16:05;;;;;;;115.90;62.70;;;-5.20;99.90;;;;;;10278794;28;20279;-85
2022/12/14 22:21:08;;;;;;;89.33;44.87;;;-5.20;99.90;;;;;;10246772;28;20241;-85
2022/12/14 22:26:11;;;;;;;78.03;38.20;;;-5.10;99.90;;;;;;10249519;28;20647;-85
2022/12/14 22:31:13;;;;;;;118.77;57.33;;;-4.70;99.90;;;;;;10248601;28;20241;-85
2022/12/14 22:36:16;;;;;;;130.47;65.53;;;-3.80;99.90;;;;;;10246382;28;20234;-86
2022/12/14 22:41:19;;;;;;;106.43;55.73;;;-4.20;99.90;;;;;;10262391;28;20300;-86
2022/12/14 22:46:24;;;;;;;127.33;66.07;;;-4.30;99.90;;;;;;10262543;28;20254;-86
2022/12/14 22:51:28;;;;;;;123.73;65.67;;;-3.80;99.90;;;;;;10262833;28;20230;-86
2022/12/14 22:56:41;;;;;;;126.33;65.43;;;-4.10;99.90;;;;;;10245775;29;20285;-85
2022/12/14 23:01:44;;;;;;;114.60;63.20;;;-4.10;99.90;;;;;;10274310;28;20276;-86
2022/12/14 23:06:52;;;;;;;125.80;64.27;;;-4.10;99.90;;;;;;10327955;28;20252;-86
